createdAt,value
2023-04-29T00:01:56.002Z,11.40
2023-04-29T00:04:23.024Z,11.30
2023-04-29T00:06:49.950Z,11.00
2023-04-29T00:09:16.854Z,11.03
2023-04-29T00:11:43.706Z,10.70
2023-04-29T00:14:10.578Z,10.20
2023-04-29T00:16:37.465Z,11.00
2023-04-29T00:19:04.413Z,11.07
2023-04-29T00:21:31.347Z,10.93
2023-04-29T00:23:58.198Z,10.60
2023-04-29T00:26:25.131Z,10.55
2023-04-29T00:28:52.006Z,10.52
2023-04-29T00:31:18.870Z,11.15
2023-04-29T00:33:45.686Z,10.98
2023-04-29T00:36:12.549Z,11.82
2023-04-29T00:38:39.421Z,11.73
2023-04-29T00:41:06.816Z,11.93
2023-04-29T00:43:33.675Z,12.00
2023-04-29T00:46:00.610Z,12.63
2023-04-29T00:48:27.556Z,11.80
2023-04-29T00:50:54.447Z,12.43
2023-04-29T00:53:21.787Z,12.25
2023-04-29T00:55:50.695Z,12.05
2023-04-29T00:58:18.921Z,11.88
2023-04-29T01:00:46.450Z,12.40
2023-04-29T01:03:13.971Z,12.48
2023-04-29T01:05:41.000Z,11.80
2023-04-29T01:08:22.945Z,12.50
2023-04-29T01:10:57.030Z,12.30
2023-04-29T01:13:35.393Z,12.20
2023-04-29T01:16:11.366Z,12.40
2023-04-29T01:18:43.533Z,13.18
2023-04-29T01:21:10.391Z,12.80
2023-04-29T01:23:37.297Z,12.67
2023-04-29T01:26:04.332Z,13.52
2023-04-29T01:28:47.918Z,13.18
2023-04-29T01:31:41.966Z,12.80
2023-04-29T01:34:10.617Z,13.10
2023-04-29T01:36:44.527Z,13.60
2023-04-29T01:39:43.637Z,14.40
2023-04-29T01:42:44.148Z,13.82
2023-04-29T01:45:15.350Z,13.05
2023-04-29T01:47:43.084Z,13.50
2023-04-29T01:50:10.508Z,13.50
2023-04-29T01:52:37.430Z,13.35
2023-04-29T01:55:05.007Z,13.68
2023-04-29T01:57:31.945Z,13.20
2023-04-29T01:59:58.853Z,13.85
2023-04-29T02:02:25.812Z,15.30
2023-04-29T02:04:52.827Z,13.40
2023-04-29T02:07:19.847Z,13.87
2023-04-29T02:09:46.732Z,13.80
2023-04-29T02:12:13.609Z,14.00
2023-04-29T02:14:40.518Z,14.13
2023-04-29T02:17:07.407Z,14.07
2023-04-29T02:19:34.318Z,13.60
2023-04-29T02:22:01.207Z,13.57
2023-04-29T02:24:28.093Z,13.93
2023-04-29T02:26:54.962Z,14.30
2023-04-29T02:29:21.850Z,13.88
2023-04-29T02:31:48.742Z,13.15
2023-04-29T02:34:15.671Z,14.02
2023-04-29T02:36:42.556Z,14.50
2023-04-29T02:39:09.458Z,15.13
2023-04-29T02:41:36.646Z,15.35
2023-04-29T02:44:03.518Z,15.13
2023-04-29T02:46:30.444Z,15.25
2023-04-29T02:48:57.354Z,15.80
2023-04-29T02:51:24.306Z,16.15
2023-04-29T02:53:51.165Z,15.70
2023-04-29T02:56:18.042Z,15.15
2023-04-29T02:58:44.903Z,15.00
2023-04-29T03:01:11.784Z,16.38
2023-04-29T03:03:38.804Z,16.20
2023-04-29T03:06:05.892Z,15.90
2023-04-29T03:08:32.771Z,15.48
2023-04-29T03:10:59.650Z,15.52
2023-04-29T03:13:26.512Z,15.60
2023-04-29T03:15:53.362Z,15.50
2023-04-29T03:18:20.227Z,15.13
2023-04-29T03:20:47.092Z,15.07
2023-04-29T03:23:14.009Z,15.40
2023-04-29T03:25:40.938Z,16.27
2023-04-29T03:28:07.944Z,15.30
2023-04-29T03:30:34.832Z,14.40
2023-04-29T03:33:01.823Z,15.88
2023-04-29T03:35:28.771Z,15.33
2023-04-29T03:37:55.616Z,15.60
2023-04-29T03:40:22.474Z,15.30
2023-04-29T03:42:49.475Z,25.07
2023-04-29T03:45:16.379Z,20.25
2023-04-29T03:47:43.301Z,16.77
2023-04-29T03:50:10.442Z,14.85
2023-04-29T03:52:37.364Z,15.98
2023-04-29T03:55:04.543Z,16.40
2023-04-29T03:57:32.016Z,16.50
2023-04-29T03:59:58.898Z,16.05
2023-04-29T04:02:26.012Z,16.13
2023-04-29T04:04:53.147Z,24.90
2023-04-29T04:07:20.167Z,21.08
2023-04-29T04:09:47.008Z,18.23
2023-04-29T04:12:13.910Z,17.33
2023-04-29T04:14:40.782Z,16.95
2023-04-29T04:17:07.659Z,16.90
2023-04-29T04:19:34.519Z,29.73
2023-04-29T04:22:04.220Z,32.55
2023-04-29T04:24:31.060Z,32.10
2023-04-29T04:26:57.934Z,25.50
2023-04-29T04:29:24.840Z,23.73
2023-04-29T04:31:51.720Z,25.00
2023-04-29T04:34:18.590Z,27.40
2023-04-29T04:36:45.449Z,32.22
2023-04-29T04:39:12.294Z,25.80
2023-04-29T04:41:39.540Z,24.00
2023-04-29T04:44:06.442Z,22.98
2023-04-29T04:46:33.313Z,23.00
2023-04-29T04:49:00.202Z,22.70
2023-04-29T04:51:27.195Z,21.85
2023-04-29T04:53:54.061Z,22.02
2023-04-29T04:56:20.908Z,20.98
2023-04-29T04:58:47.754Z,20.00
2023-04-29T05:01:14.775Z,19.42
2023-04-29T05:03:41.843Z,20.73
2023-04-29T05:06:08.773Z,28.80
2023-04-29T05:08:35.650Z,26.23
2023-04-29T05:11:02.552Z,22.42
2023-04-29T05:13:29.400Z,19.70
2023-04-29T05:15:56.239Z,18.65
2023-04-29T05:18:23.150Z,19.38
2023-04-29T05:20:49.973Z,52.25
2023-04-29T05:23:16.819Z,46.80
2023-04-29T05:25:43.687Z,39.63
2023-04-29T05:28:10.574Z,27.17
2023-04-29T05:30:37.733Z,20.15
2023-04-29T05:33:04.741Z,22.52
2023-04-29T05:35:31.623Z,22.40
2023-04-29T05:37:58.494Z,19.23
2023-04-29T05:40:25.396Z,17.30
2023-04-29T05:42:52.256Z,15.37
2023-04-29T05:45:19.130Z,14.85
2023-04-29T05:47:46.019Z,13.95
2023-04-29T05:50:12.919Z,13.50
2023-04-29T05:52:39.839Z,12.20
2023-04-29T05:55:06.857Z,12.27
2023-04-29T05:57:33.736Z,11.43
2023-04-29T06:00:00.657Z,12.30
2023-04-29T06:02:28.243Z,11.52
2023-04-29T06:04:55.708Z,10.83
2023-04-29T06:07:22.829Z,10.00
2023-04-29T06:09:50.186Z,11.83
2023-04-29T06:12:17.247Z,18.27
2023-04-29T06:14:44.130Z,10.80
2023-04-29T06:17:11.588Z,9.60
2023-04-29T06:19:38.524Z,9.83
2023-04-29T06:22:05.376Z,9.40
2023-04-29T06:24:32.251Z,9.20
2023-04-29T06:26:59.143Z,8.60
2023-04-29T06:29:26.033Z,9.10
2023-04-29T06:31:52.972Z,9.00
2023-04-29T06:34:19.876Z,8.25
2023-04-29T06:36:46.734Z,8.57
2023-04-29T06:39:13.604Z,8.18
2023-04-29T06:41:40.471Z,8.20
2023-04-29T06:44:07.340Z,8.80
2023-04-29T06:46:34.258Z,8.85
2023-04-29T06:49:01.202Z,9.18
2023-04-29T06:51:28.078Z,13.20
2023-04-29T06:53:55.036Z,9.95
2023-04-29T06:56:21.886Z,7.70
2023-04-29T06:58:48.735Z,8.90
2023-04-29T07:01:24.421Z,8.90
2023-04-29T07:03:51.782Z,8.30
2023-04-29T07:06:18.819Z,8.23
2023-04-29T07:08:45.700Z,8.20
2023-04-29T07:11:12.730Z,8.10
2023-04-29T07:13:39.601Z,8.45
2023-04-29T07:16:16.046Z,7.78
2023-04-29T07:18:45.441Z,8.20
2023-04-29T07:21:12.294Z,8.40
2023-04-29T07:23:39.312Z,8.30
2023-04-29T07:26:10.959Z,8.60
2023-04-29T07:28:37.853Z,8.77
2023-04-29T07:31:04.817Z,8.40
2023-04-29T07:33:31.788Z,7.40
2023-04-29T07:35:58.672Z,7.10
2023-04-29T07:38:25.587Z,7.30
2023-04-29T07:40:52.711Z,7.00
2023-04-29T07:43:19.631Z,6.70
2023-04-29T07:45:46.480Z,6.90
2023-04-29T07:48:13.389Z,6.80
2023-04-29T07:50:40.311Z,7.30
2023-04-29T07:53:07.209Z,6.70
2023-04-29T07:55:34.060Z,6.72
2023-04-29T07:58:00.972Z,6.55
2023-04-29T08:00:27.811Z,7.07
2023-04-29T08:02:55.981Z,6.90
2023-04-29T08:05:24.175Z,6.75
2023-04-29T08:07:51.548Z,7.15
2023-04-29T08:10:19.478Z,7.00
2023-04-29T08:12:46.973Z,6.70
2023-04-29T08:15:13.979Z,6.80
2023-04-29T08:17:41.023Z,7.30
2023-04-29T08:20:08.549Z,6.20
2023-04-29T08:22:35.604Z,6.30
2023-04-29T08:25:04.100Z,6.72
2023-04-29T08:27:31.195Z,6.47
2023-04-29T08:29:58.099Z,6.40
2023-04-29T08:32:25.011Z,6.55
2023-04-29T08:34:52.230Z,6.72
2023-04-29T08:37:19.189Z,7.00
2023-04-29T08:39:46.132Z,7.10
2023-04-29T08:42:13.268Z,6.03
2023-04-29T08:44:43.637Z,6.13
2023-04-29T08:47:10.989Z,5.95
2023-04-29T08:49:38.049Z,6.20
2023-04-29T08:52:05.293Z,5.70
2023-04-29T08:54:32.534Z,6.10
2023-04-29T08:57:00.576Z,5.65
2023-04-29T08:59:29.243Z,6.20
2023-04-29T09:01:57.533Z,7.43
2023-04-29T09:04:27.497Z,6.03
2023-04-29T09:06:58.008Z,5.90
2023-04-29T09:09:28.288Z,5.50
2023-04-29T09:11:55.144Z,5.65
2023-04-29T09:14:23.403Z,5.90
2023-04-29T09:16:50.546Z,5.20
2023-04-29T09:19:33.811Z,5.57
2023-04-29T09:22:02.354Z,5.50
2023-04-29T09:24:30.571Z,5.10
2023-04-29T09:26:58.384Z,4.70
2023-04-29T09:29:25.743Z,4.63
2023-04-29T09:31:52.810Z,4.95
2023-04-29T09:34:35.229Z,4.80
2023-04-29T09:37:02.105Z,4.50
2023-04-29T09:39:39.214Z,4.80
2023-04-29T09:42:06.183Z,4.30
2023-04-29T09:44:35.039Z,4.60
2023-04-29T09:47:06.673Z,7.53
2023-04-29T09:49:39.011Z,5.80
2023-04-29T09:52:11.032Z,4.60
2023-04-29T09:54:39.224Z,4.40
2023-04-29T09:57:07.473Z,4.10
2023-04-29T09:59:36.493Z,3.90
2023-04-29T10:02:13.019Z,4.28
2023-04-29T10:04:41.641Z,4.25
2023-04-29T10:07:09.306Z,4.13
2023-04-29T10:09:40.036Z,4.27
2023-04-29T10:12:07.827Z,4.10
2023-04-29T10:14:43.567Z,3.85
2023-04-29T10:17:27.019Z,4.30
2023-04-29T10:20:03.046Z,4.07
2023-04-29T10:22:37.090Z,4.30
2023-04-29T10:25:07.737Z,3.95
2023-04-29T10:27:35.372Z,3.88
2023-04-29T10:30:03.277Z,3.60
2023-04-29T10:32:39.933Z,4.10
2023-04-29T10:35:18.592Z,4.87
2023-04-29T10:37:46.949Z,4.70
2023-04-29T10:40:36.523Z,10.30
2023-04-29T10:43:03.719Z,5.50
2023-04-29T10:45:32.200Z,4.60
2023-04-29T10:48:04.896Z,4.40
2023-04-29T10:50:49.817Z,4.38
2023-04-29T10:53:19.884Z,4.20
2023-04-29T10:55:54.812Z,4.00
2023-04-29T10:58:45.172Z,4.40
2023-04-29T11:01:17.381Z,4.40
2023-04-29T11:03:47.168Z,3.90
2023-04-29T11:06:15.046Z,3.80
2023-04-29T11:08:41.905Z,4.20
2023-04-29T11:11:09.357Z,4.50
2023-04-29T11:13:46.873Z,4.33
2023-04-29T11:16:13.797Z,4.10
2023-04-29T11:19:05.789Z,3.50
2023-04-29T11:21:37.029Z,3.90
2023-04-29T11:24:05.020Z,5.75
2023-04-29T11:26:35.931Z,4.50
2023-04-29T11:29:02.906Z,4.07
2023-04-29T11:31:33.661Z,4.13
2023-04-29T11:34:00.921Z,4.28
2023-04-29T11:36:27.872Z,5.15
2023-04-29T11:38:54.760Z,3.70
2023-04-29T11:41:21.915Z,3.80
2023-04-29T11:43:56.363Z,3.47
2023-04-29T11:46:23.304Z,3.90
2023-04-29T11:48:50.538Z,3.60
2023-04-29T11:51:18.622Z,3.80
2023-04-29T11:53:45.982Z,3.40
2023-04-29T11:56:13.081Z,5.15
2023-04-29T11:58:42.107Z,9.43
2023-04-29T12:01:09.059Z,7.65
2023-04-29T12:03:36.330Z,3.45
2023-04-29T12:06:03.881Z,3.60
2023-04-29T12:08:31.163Z,3.30
2023-04-29T12:10:59.610Z,3.13
2023-04-29T12:13:29.140Z,2.80
2023-04-29T12:15:57.678Z,3.50
2023-04-29T12:18:24.867Z,3.10
2023-04-29T12:20:52.077Z,3.10
2023-04-29T12:23:21.423Z,2.90
2023-04-29T12:25:59.635Z,3.22
2023-04-29T12:28:27.270Z,3.60
2023-04-29T12:30:54.951Z,4.30
2023-04-29T12:33:26.735Z,3.47
2023-04-29T12:35:56.451Z,3.10
2023-04-29T12:38:27.393Z,3.20
2023-04-29T12:40:59.369Z,9.53
2023-04-29T12:43:30.393Z,4.18
2023-04-29T12:46:05.577Z,4.80
2023-04-29T12:48:34.081Z,3.10
2023-04-29T12:51:02.237Z,3.10
2023-04-29T12:53:32.202Z,3.70
2023-04-29T12:55:59.606Z,3.85
2023-04-29T12:58:29.542Z,4.10
2023-04-29T13:00:57.323Z,4.07
2023-04-29T13:03:24.887Z,3.83
2023-04-29T13:05:52.043Z,3.85
2023-04-29T13:08:19.474Z,3.97
2023-04-29T13:10:46.398Z,4.20
2023-04-29T13:13:13.303Z,3.25
2023-04-29T13:15:40.241Z,3.60
2023-04-29T13:18:07.435Z,3.60
2023-04-29T13:20:41.008Z,3.72
2023-04-29T13:23:09.247Z,3.50
2023-04-29T13:25:36.292Z,3.85
2023-04-29T13:28:03.332Z,3.60
2023-04-29T13:30:30.216Z,4.00
2023-04-29T13:33:03.129Z,3.70
2023-04-29T13:35:36.551Z,3.30
2023-04-29T13:38:03.421Z,3.90
2023-04-29T13:40:31.218Z,3.50
2023-04-29T13:43:06.040Z,3.55
2023-04-29T13:45:39.830Z,3.50
2023-04-29T13:48:26.047Z,3.10
2023-04-29T13:54:04.903Z,3.00
2023-04-29T13:59:31.511Z,4.28
2023-04-29T14:04:00.441Z,3.20
2023-04-29T14:06:27.555Z,3.45
2023-04-29T14:08:54.404Z,3.08
2023-04-29T14:11:21.289Z,3.07
2023-04-29T14:13:48.157Z,3.53
2023-04-29T14:16:15.081Z,3.20
2023-04-29T14:18:41.919Z,3.30
2023-04-29T14:21:08.931Z,3.50
2023-04-29T14:23:35.823Z,3.70
2023-04-29T14:26:22.398Z,3.88
2023-04-29T14:28:49.716Z,4.90
2023-04-29T14:31:16.646Z,4.57
2023-04-29T14:33:43.579Z,3.40
2023-04-29T14:36:10.458Z,3.60
2023-04-29T14:38:37.321Z,4.00
2023-04-29T14:41:04.265Z,3.60
2023-04-29T14:43:31.166Z,3.60
2023-04-29T14:45:58.075Z,4.57
2023-04-29T14:48:24.951Z,4.78
2023-04-29T14:50:51.809Z,4.40
2023-04-29T14:53:18.674Z,4.10
2023-04-29T14:55:45.570Z,5.35
2023-04-29T14:58:12.392Z,5.07
2023-04-29T15:00:39.260Z,5.68
2023-04-29T15:03:06.200Z,5.00
2023-04-29T15:05:33.120Z,5.33
2023-04-29T15:07:59.987Z,4.70
2023-04-29T15:10:27.223Z,5.47
2023-04-29T15:12:54.717Z,22.93
2023-04-29T15:15:22.270Z,33.30
2023-04-29T15:17:49.331Z,12.93
2023-04-29T15:20:16.648Z,9.00
2023-04-29T15:22:43.568Z,6.30
2023-04-29T15:25:10.708Z,7.20
2023-04-29T15:27:38.323Z,8.90
2023-04-29T15:30:06.379Z,5.70
2023-04-29T15:32:33.262Z,11.43
2023-04-29T15:35:04.039Z,5.67
2023-04-29T15:37:31.122Z,6.00
2023-04-29T15:40:01.359Z,7.30
2023-04-29T15:42:28.554Z,13.85
2023-04-29T15:44:55.466Z,6.88
2023-04-29T15:47:22.553Z,6.85
2023-04-29T15:49:49.442Z,7.00
2023-04-29T15:52:16.345Z,7.20
2023-04-29T15:54:43.198Z,7.18
2023-04-29T15:57:10.164Z,7.30
2023-04-29T15:59:37.005Z,7.32
2023-04-29T16:02:03.854Z,11.10
2023-04-29T16:04:30.791Z,7.40
2023-04-29T16:06:57.654Z,8.85
2023-04-29T16:09:24.561Z,7.13
2023-04-29T16:11:51.441Z,7.25
2023-04-29T16:14:18.343Z,6.67
2023-04-29T16:16:45.252Z,7.00
2023-04-29T16:19:12.168Z,6.72
2023-04-29T16:21:39.031Z,6.80
2023-04-29T16:24:05.863Z,7.68
2023-04-29T16:26:32.751Z,7.00
2023-04-29T16:28:59.627Z,6.70
2023-04-29T16:31:26.552Z,6.80
2023-04-29T16:33:53.474Z,6.70
2023-04-29T16:36:20.318Z,6.77
2023-04-29T16:38:47.158Z,6.57
2023-04-29T16:41:14.131Z,6.60
2023-04-29T16:43:40.995Z,6.60
2023-04-29T16:46:07.896Z,6.50
2023-04-29T16:48:34.896Z,6.60
2023-04-29T16:51:02.434Z,6.53
2023-04-29T16:53:29.319Z,5.90
2023-04-29T16:55:56.409Z,7.35
2023-04-29T16:58:23.383Z,9.63
2023-04-29T17:00:50.453Z,4.00
2023-04-29T17:03:17.345Z,1.30
2023-04-29T17:05:44.373Z,1.00
2023-04-29T17:08:11.263Z,1.10
2023-04-29T17:10:38.113Z,1.20
2023-04-29T17:13:05.042Z,1.10
2023-04-29T17:15:31.915Z,1.95
2023-04-29T17:17:58.808Z,1.83
2023-04-29T17:20:25.754Z,2.55
2023-04-29T17:22:52.731Z,2.80
2023-04-29T17:25:19.687Z,3.08
2023-04-29T17:27:46.534Z,1.80
2023-04-29T17:30:13.692Z,2.10
2023-04-29T17:32:40.684Z,4.93
2023-04-29T17:35:08.799Z,3.20
2023-04-29T17:37:35.896Z,1.80
2023-04-29T17:40:03.323Z,3.30
2023-04-29T17:42:30.188Z,2.83
2023-04-29T17:44:57.042Z,1.85
2023-04-29T17:47:23.975Z,1.80
2023-04-29T17:49:50.880Z,2.17
2023-04-29T17:52:18.040Z,2.10
2023-04-29T17:54:44.904Z,2.20
2023-04-29T17:57:11.769Z,2.57
2023-04-29T17:59:38.622Z,2.13
2023-04-29T18:02:05.543Z,3.38
2023-04-29T18:04:32.422Z,2.70
2023-04-29T18:06:59.247Z,1.90
2023-04-29T18:09:26.137Z,1.90
2023-04-29T18:11:53.122Z,2.00
2023-04-29T18:14:20.003Z,2.10
2023-04-29T18:16:46.894Z,2.20
2023-04-29T18:19:13.928Z,2.05
2023-04-29T18:21:40.791Z,2.83
2023-04-29T18:24:07.650Z,2.67
2023-04-29T18:26:34.525Z,2.00
2023-04-29T18:29:01.376Z,2.40
2023-04-29T18:31:28.299Z,2.20
2023-04-29T18:33:55.245Z,2.50
2023-04-29T18:36:22.188Z,3.13
2023-04-29T18:38:49.264Z,2.65
2023-04-29T18:41:16.119Z,2.27
2023-04-29T18:43:46.610Z,2.30
2023-04-29T18:46:13.485Z,2.50
2023-04-29T18:48:40.354Z,2.80
2023-04-29T18:51:07.258Z,2.50
2023-04-29T18:53:34.306Z,3.22
2023-04-29T18:56:01.236Z,3.30
2023-04-29T18:58:28.188Z,3.88
2023-04-29T19:00:55.239Z,3.70
2023-04-29T19:03:22.084Z,3.50
2023-04-29T19:05:48.944Z,4.60
2023-04-29T19:08:15.807Z,3.15
2023-04-29T19:10:43.270Z,2.93
2023-04-29T19:13:10.636Z,2.40
2023-04-29T19:15:37.924Z,2.25
2023-04-29T19:18:04.991Z,2.40
2023-04-29T19:20:32.092Z,2.28
2023-04-29T19:22:59.011Z,2.67
2023-04-29T19:25:26.020Z,2.30
2023-04-29T19:27:53.482Z,1.90
2023-04-29T19:30:20.717Z,2.13
2023-04-29T19:32:48.155Z,2.15
2023-04-29T19:35:15.129Z,3.88
2023-04-29T19:37:41.976Z,8.57
2023-04-29T19:40:09.423Z,22.95
2023-04-29T19:42:36.432Z,8.75
2023-04-29T19:45:05.506Z,5.53
2023-04-29T19:47:32.432Z,3.97
2023-04-29T19:49:59.316Z,2.90
2023-04-29T19:52:26.241Z,5.83
2023-04-29T19:54:53.102Z,4.05
2023-04-29T19:57:19.951Z,4.75
2023-04-29T19:59:46.836Z,4.20
2023-04-29T20:02:13.801Z,4.20
2023-04-29T20:04:40.711Z,4.47
2023-04-29T20:07:07.616Z,4.00
2023-04-29T20:09:34.477Z,3.80
2023-04-29T20:12:01.359Z,7.70
2023-04-29T20:14:28.239Z,6.25
2023-04-29T20:16:55.217Z,7.35
2023-04-29T20:19:22.171Z,4.40
2023-04-29T20:21:48.986Z,2.50
2023-04-29T20:24:15.810Z,2.90
2023-04-29T20:26:42.719Z,3.40
2023-04-29T20:29:09.654Z,3.00
2023-04-29T20:31:36.689Z,3.00
2023-04-29T20:34:03.606Z,2.90
2023-04-29T20:36:30.478Z,2.60
2023-04-29T20:38:57.346Z,2.60
2023-04-29T20:41:27.153Z,2.50
2023-04-29T20:43:54.062Z,2.72
2023-04-29T20:46:21.125Z,2.70
2023-04-29T20:48:48.307Z,2.65
2023-04-29T20:51:15.236Z,2.20
2023-04-29T20:53:42.078Z,2.20
2023-04-29T20:56:08.938Z,1.98
2023-04-29T20:58:35.868Z,2.10
2023-04-29T21:01:02.766Z,2.40
2023-04-29T21:03:29.685Z,2.10
2023-04-29T21:05:57.108Z,2.60
2023-04-29T21:08:24.032Z,10.98
2023-04-29T21:10:50.933Z,12.73
2023-04-29T21:13:17.989Z,3.70
2023-04-29T21:15:45.593Z,4.50
2023-04-29T21:18:12.935Z,3.08
2023-04-29T21:20:40.318Z,2.60
2023-04-29T21:23:07.242Z,2.40
2023-04-29T21:25:34.245Z,2.10
2023-04-29T21:28:01.131Z,2.35
2023-04-29T21:30:28.041Z,2.72
2023-04-29T21:32:54.959Z,2.20
2023-04-29T21:35:21.828Z,2.60
2023-04-29T21:37:48.743Z,2.20
2023-04-29T21:40:15.643Z,2.50
2023-04-29T21:42:44.045Z,2.45
2023-04-29T21:45:14.445Z,2.20
2023-04-29T21:47:41.607Z,2.30
2023-04-29T21:50:09.966Z,2.17
2023-04-29T21:52:37.223Z,2.25
2023-04-29T21:55:04.802Z,2.40
2023-04-29T21:57:42.628Z,2.55
2023-04-29T22:00:11.926Z,2.50
2023-04-29T22:02:38.910Z,2.30
2023-04-29T22:05:06.078Z,3.05
2023-04-29T22:07:32.968Z,3.15
2023-04-29T22:09:59.809Z,3.03
2023-04-29T22:12:26.956Z,2.70
2023-04-29T22:14:53.842Z,2.58
2023-04-29T22:17:20.782Z,2.30
2023-04-29T22:19:47.807Z,3.10
2023-04-29T22:22:14.673Z,2.60
2023-04-29T22:24:41.539Z,2.80
2023-04-29T22:27:08.476Z,2.40
2023-04-29T22:29:35.359Z,2.40
2023-04-29T22:32:02.259Z,2.50
2023-04-29T22:34:29.098Z,2.60
2023-04-29T22:36:55.982Z,2.30
2023-04-29T22:39:22.833Z,2.67
2023-04-29T22:41:49.671Z,3.08
2023-04-29T22:44:16.719Z,2.60
2023-04-29T22:46:43.535Z,2.40
2023-04-29T22:49:11.054Z,3.10
2023-04-29T22:51:38.093Z,2.50
2023-04-29T22:54:04.995Z,2.90
2023-04-29T22:56:31.851Z,2.90
2023-04-29T22:58:59.027Z,3.00
2023-04-29T23:01:25.918Z,2.40
2023-04-29T23:03:52.765Z,2.40
2023-04-29T23:06:19.801Z,3.10
2023-04-29T23:08:46.839Z,2.80
2023-04-29T23:11:13.672Z,2.80
2023-04-29T23:13:40.564Z,2.80
2023-04-29T23:16:10.626Z,3.00
2023-04-29T23:18:37.850Z,2.70
2023-04-29T23:21:04.953Z,2.80
2023-04-29T23:23:31.940Z,2.70
2023-04-29T23:25:58.844Z,3.08
2023-04-29T23:28:25.781Z,2.57
2023-04-29T23:30:52.715Z,3.22
2023-04-29T23:33:19.599Z,2.88
2023-04-29T23:35:53.123Z,2.90
2023-04-29T23:38:20.060Z,2.85
2023-04-29T23:40:47.301Z,2.80
2023-04-29T23:43:14.387Z,3.15
2023-04-29T23:45:43.448Z,2.85
2023-04-29T23:48:10.329Z,2.83
2023-04-29T23:50:37.200Z,3.58
2023-04-29T23:53:04.274Z,2.80
2023-04-29T23:55:31.196Z,2.83
2023-04-29T23:57:58.200Z,3.33
